Time;durP1;ratioP1;P1;durP2;ratioP2;P2;SDS_P1;SDS_P2;PMS_P1;PMS_P2;Temp;Humidity;BMP_temperature;BMP_pressure;BME280_temperature;BME280_humidity;BME280_pressure;Samples;Min_cycle;Max_cycle;Signal;HPM_P1;HPM_P2
2023/03/08 00:01:34;;;;;;;30.40;15.60;;;;;;;3.84;100.00;98287.30;105453;1304;26557;-77
2023/03/08 00:04:03;;;;;;;27.50;13.80;;;;;;;3.83;100.00;98290.96;105530;1304;25346;-76
2023/03/08 00:06:32;;;;;;;27.20;13.30;;;;;;;3.84;100.00;98293.17;105497;1304;25278;-76
2023/03/08 00:09:05;;;;;;;25.40;12.80;;;;;;;3.85;100.00;98297.30;105512;1304;25284;-75
2023/03/08 00:11:33;;;;;;;27.20;14.10;;;;;;;3.85;100.00;98303.50;105376;1304;22576;-76
2023/03/08 00:14:02;;;;;;;32.50;15.20;;;;;;;3.85;100.00;98304.14;105526;1304;25456;-76
2023/03/08 00:16:31;;;;;;;30.00;14.30;;;;;;;3.81;100.00;98306.27;105579;1304;23934;-79
2023/03/08 00:19:00;;;;;;;32.90;16.00;;;;;;;3.78;100.00;98308.90;105523;1304;22588;-75
2023/03/08 00:21:29;;;;;;;31.20;15.40;;;;;;;3.76;100.00;98307.50;105541;1304;23895;-76
2023/03/08 00:23:58;;;;;;;30.30;15.70;;;;;;;3.76;100.00;98315.39;105550;1304;23936;-75
2023/03/08 00:26:27;;;;;;;30.80;14.80;;;;;;;3.74;100.00;98319.73;105491;1304;22564;-77
2023/03/08 00:28:55;;;;;;;30.30;15.10;;;;;;;3.73;100.00;98325.89;105532;1304;26675;-76
2023/03/08 00:31:25;;;;;;;29.30;14.10;;;;;;;3.72;100.00;98324.54;105427;1304;25458;-76
2023/03/08 00:33:54;;;;;;;29.90;14.50;;;;;;;3.73;100.00;98328.96;105596;1304;25498;-75
2023/03/08 00:36:25;;;;;;;27.70;14.60;;;;;;;3.73;100.00;98330.02;105355;1304;23843;-76
2023/03/08 00:38:56;;;;;;;23.70;11.90;;;;;;;3.73;100.00;98334.67;105431;1304;223191;-76
2023/03/08 00:41:24;;;;;;;29.00;13.80;;;;;;;3.72;100.00;98338.45;105554;1304;23937;-75
2023/03/08 00:43:53;;;;;;;25.80;12.40;;;;;;;3.72;100.00;98341.33;105384;1304;25474;-76
2023/03/08 00:46:23;;;;;;;26.80;13.50;;;;;;;3.70;100.00;98344.54;105566;1304;22500;-76
2023/03/08 00:48:53;;;;;;;23.50;11.70;;;;;;;3.70;100.00;98354.05;105351;1304;25351;-77
2023/03/08 00:51:23;;;;;;;28.40;12.40;;;;;;;3.69;100.00;98363.95;105236;1304;25458;-77
2023/03/08 00:53:54;;;;;;;24.60;12.10;;;;;;;3.68;100.00;98370.27;105444;1304;26546;-76
2023/03/08 00:56:23;;;;;;;25.60;12.50;;;;;;;3.68;100.00;98389.30;105602;1280;23844;-76
2023/03/08 00:58:52;;;;;;;23.20;10.90;;;;;;;3.71;100.00;98435.05;105495;1304;25671;-76
2023/03/08 01:01:22;;;;;;;25.50;13.00;;;;;;;3.73;100.00;98455.95;105655;1304;25527;-76
2023/03/08 01:03:53;;;;;;;27.10;13.70;;;;;;;3.75;100.00;98466.45;105470;1304;25439;-76
2023/03/08 01:06:25;;;;;;;24.80;11.30;;;;;;;3.77;100.00;98467.67;105740;1304;23795;-75
2023/03/08 01:08:54;;;;;;;27.40;13.30;;;;;;;3.79;100.00;98463.94;105616;1304;26546;-76
2023/03/08 01:11:25;;;;;;;25.90;12.90;;;;;;;3.79;100.00;98456.41;105554;1304;25462;-76
2023/03/08 01:13:54;;;;;;;27.40;14.00;;;;;;;3.76;100.00;98415.72;105554;1304;22536;-76
2023/03/08 01:16:26;;;;;;;34.60;15.90;;;;;;;3.74;100.00;98422.95;105619;1304;25466;-76
2023/03/08 01:18:58;;;;;;;28.40;15.00;;;;;;;3.71;100.00;98428.74;105566;1304;22572;-75
2023/03/08 01:21:28;;;;;;;36.20;18.30;;;;;;;3.69;100.00;98436.80;105438;1304;22589;-76
2023/03/08 01:23:57;;;;;;;34.00;17.10;;;;;;;3.69;100.00;98446.29;105633;1304;24034;-75
2023/03/08 01:26:30;;;;;;;31.60;14.70;;;;;;;3.69;100.00;98453.58;105573;1304;26560;-75
2023/03/08 01:28:58;;;;;;;26.80;13.60;;;;;;;3.70;100.00;98466.63;105490;1304;26739;-75
2023/03/08 01:31:28;;;;;;;29.60;14.10;;;;;;;3.71;100.00;98473.45;105453;1304;25461;-75
2023/03/08 01:34:00;;;;;;;27.30;13.40;;;;;;;3.72;100.00;98488.53;105645;1304;26150;-76
2023/03/08 01:36:29;;;;;;;28.20;14.10;;;;;;;3.73;100.00;98501.48;105355;1304;25459;-77
2023/03/08 01:39:00;;;;;;;29.50;14.80;;;;;;;3.73;100.00;98515.13;105571;1304;23843;-76
2023/03/08 01:41:30;;;;;;;30.00;14.30;;;;;;;3.75;100.00;98521.71;105511;1304;22605;-76
2023/03/08 01:44:02;;;;;;;29.60;14.10;;;;;;;3.76;100.00;98531.29;105417;1304;25474;-76
2023/03/08 01:46:33;;;;;;;27.90;13.00;;;;;;;3.78;100.00;98547.12;105481;1304;26003;-76
2023/03/08 01:49:32;;;;;;;25.30;12.30;;;;;;;3.80;100.00;98559.20;105192;1304;23837;-76
2023/03/08 01:52:11;;;;;;;26.80;12.40;;;;;;;3.79;100.00;98575.06;104893;1304;23152;-68
2023/03/08 01:54:50;;;;;;;32.50;14.40;;;;;;;3.81;100.00;98587.77;104789;1304;26700;-69
2023/03/08 01:57:26;;;;;;;33.30;14.60;;;;;;;3.80;100.00;98604.38;104682;1304;22559;-69
2023/03/08 01:59:58;;;;;;;26.80;13.20;;;;;;;3.82;100.00;98630.32;104565;1304;25354;-68
2023/03/08 02:02:33;;;;;;;27.70;13.90;;;;;;;3.82;100.00;98639.17;104630;1304;22606;-71
2023/03/08 02:05:02;;;;;;;29.70;14.10;;;;;;;3.82;100.00;98668.63;104593;1304;25339;-70
2023/03/08 02:07:31;;;;;;;30.40;14.50;;;;;;;3.79;100.00;98682.55;104760;1304;25652;-69
2023/03/08 02:10:00;;;;;;;28.60;12.80;;;;;;;3.75;100.00;98666.63;104674;1304;25475;-69
2023/03/08 02:12:33;;;;;;;29.70;11.00;;;;;;;3.69;100.00;98601.84;104536;1304;25933;-69
2023/03/08 02:15:03;;;;;;;30.00;14.20;;;;;;;3.63;100.00;98541.54;104516;1304;25462;-69
2023/03/08 02:17:34;;;;;;;29.10;13.60;;;;;;;3.59;100.00;98493.52;105024;1304;25475;-69
2023/03/08 02:20:14;;;;;;;22.90;11.30;;;;;;;3.56;100.00;98453.42;104830;1304;22683;-69
2023/03/08 02:22:45;;;;;;;28.60;13.00;;;;;;;3.53;100.00;98429.70;104508;1304;25283;-72
2023/03/08 02:25:24;;;;;;;30.40;13.70;;;;;;;3.52;100.00;98417.08;104478;1304;26544;-69
2023/03/08 02:27:53;;;;;;;30.60;13.70;;;;;;;3.53;100.00;98402.17;104625;1304;26666;-68
2023/03/08 02:30:24;;;;;;;32.70;14.90;;;;;;;3.56;100.00;98409.48;104606;1304;25458;-69
2023/03/08 02:32:57;;;;;;;33.10;15.10;;;;;;;3.60;100.00;98409.27;104755;1304;25474;-69
2023/03/08 02:35:28;;;;;;;29.70;15.30;;;;;;;3.66;100.00;98406.39;103330;1304;1003409;-71
2023/03/08 02:37:57;;;;;;;32.00;15.80;;;;;;;3.70;100.00;98394.03;104744;1304;23938;-70
2023/03/08 02:40:25;;;;;;;33.60;14.40;;;;;;;3.72;100.00;98391.23;104710;1288;24269;-70
2023/03/08 02:42:55;;;;;;;32.50;14.90;;;;;;;3.75;100.00;98392.89;104764;1304;26788;-69
2023/03/08 02:45:24;;;;;;;35.40;17.40;;;;;;;3.77;100.00;98396.35;104572;1304;25281;-68
2023/03/08 02:47:53;;;;;;;35.90;16.70;;;;;;;3.81;100.00;98403.40;104686;1304;26619;-70
2023/03/08 02:50:22;;;;;;;32.90;15.10;;;;;;;3.85;100.00;98414.24;104717;1304;24249;-69
2023/03/08 02:52:50;;;;;;;31.30;14.80;;;;;;;3.88;100.00;98434.77;104707;1304;26560;-69
2023/03/08 02:55:19;;;;;;;37.70;16.90;;;;;;;3.89;100.00;98453.67;104626;1304;25474;-68
2023/03/08 02:57:48;;;;;;;37.00;16.10;;;;;;;3.92;100.00;98470.89;104671;1304;23942;-70
2023/03/08 03:00:18;;;;;;;32.80;15.60;;;;;;;3.93;100.00;98480.75;104694;1304;26556;-69
2023/03/08 03:02:47;;;;;;;35.30;16.30;;;;;;;3.94;100.00;98490.42;104656;1299;25471;-67
2023/03/08 03:05:16;;;;;;;38.00;16.60;;;;;;;3.94;100.00;98472.23;104738;1303;23917;-68
2023/03/08 03:07:51;;;;;;;33.40;15.70;;;;;;;3.95;100.00;98394.05;104890;1303;26553;-69
2023/03/08 03:10:20;;;;;;;42.80;18.60;;;;;;;3.95;100.00;98420.99;104827;1303;25462;-69
2023/03/08 03:12:50;;;;;;;42.30;18.50;;;;;;;3.94;100.00;98443.79;104810;1303;25724;-65
2023/03/08 03:15:20;;;;;;;46.00;18.80;;;;;;;3.91;100.00;98492.36;104805;1303;25284;-70
2023/03/08 03:17:52;;;;;;;43.20;18.70;;;;;;;3.90;100.00;98514.96;104858;1303;23949;-67
2023/03/08 03:20:21;;;;;;;41.70;19.60;;;;;;;3.87;100.00;98555.06;104674;1303;22548;-68
2023/03/08 03:22:50;;;;;;;45.30;18.10;;;;;;;3.83;100.00;98599.74;104617;1298;25524;-67
2023/03/08 03:25:21;;;;;;;40.00;18.90;;;;;;;3.79;100.00;98644.11;104791;1285;26037;-67
2023/03/08 03:27:52;;;;;;;38.70;16.00;;;;;;;3.76;100.00;98693.30;104720;1304;22551;-69
2023/03/08 03:30:21;;;;;;;34.20;15.70;;;;;;;3.73;100.00;98642.79;104582;1304;25338;-68
2023/03/08 03:32:51;;;;;;;35.90;15.20;;;;;;;3.69;100.00;98603.61;104913;1304;25442;-68
2023/03/08 03:35:23;;;;;;;38.00;14.90;;;;;;;3.67;100.00;98669.39;104682;1304;22639;-68
2023/03/08 03:37:53;;;;;;;39.80;15.60;;;;;;;3.65;100.00;98738.83;104516;1304;26682;-69
2023/03/08 03:40:22;;;;;;;37.50;15.00;;;;;;;3.60;100.00;98847.14;104705;1304;26654;-69
2023/03/08 03:42:56;;;;;;;35.60;13.50;;;;;;;3.56;100.00;99093.05;104802;1304;25465;-67
2023/03/08 03:45:25;;;;;;;36.50;15.50;;;;;;;3.55;100.00;99150.16;104705;1304;26605;-70
2023/03/08 03:47:54;;;;;;;35.70;15.90;;;;;;;3.53;100.00;99229.13;104515;1304;24270;-69
2023/03/08 03:50:23;;;;;;;35.70;15.00;;;;;;;3.51;100.00;99314.84;104638;1304;26532;-69
2023/03/08 03:52:56;;;;;;;;;;;;;;;3.51;100.00;99364.08;103997;1304;1003453;-70
2023/03/08 03:55:25;;;;;;;39.60;15.50;;;;;;;3.49;100.00;99399.34;104667;1304;25462;-73
2023/03/08 03:57:55;;;;;;;44.80;17.30;;;;;;;3.47;100.00;99434.82;104741;1304;25398;-69
2023/03/08 04:00:44;;;;;;;38.30;16.40;;;;;;;3.44;100.00;99491.79;104557;1305;25455;-67
2023/03/08 04:03:19;;;;;;;45.00;14.20;;;;;;;3.43;100.00;99556.20;104665;1305;25923;-69
2023/03/08 04:05:49;;;;;;;43.10;19.60;;;;;;;3.42;100.00;99601.19;104561;1305;24432;-69
2023/03/08 04:08:23;;;;;;;43.70;19.40;;;;;;;3.42;100.00;99634.33;104596;1305;26099;-69
2023/03/08 04:10:59;;;;;;;42.50;18.90;;;;;;;3.43;100.00;99667.02;104490;1305;25458;-69
2023/03/08 04:13:28;;;;;;;43.40;17.60;;;;;;;3.43;100.00;99703.20;104543;1305;25465;-71
2023/03/08 04:16:29;;;;;;;36.80;16.60;;;;;;;3.44;100.00;99732.02;104535;1305;24215;-70
2023/03/08 04:19:07;;;;;;;36.00;15.90;;;;;;;3.47;100.00;99769.72;104638;1305;26533;-69
2023/03/08 04:21:36;;;;;;;39.80;16.70;;;;;;;3.49;100.00;99819.00;104294;1305;22552;-69
2023/03/08 04:24:09;;;;;;;34.80;15.80;;;;;;;3.50;100.00;99805.78;104633;1298;25536;-68
2023/03/08 04:26:37;;;;;;;42.30;17.50;;;;;;;3.52;100.00;99836.29;104491;1305;25461;-70
2023/03/08 04:29:13;;;;;;;38.80;17.60;;;;;;;3.53;100.00;99884.62;104661;1305;26002;-69
2023/03/08 04:31:42;;;;;;;43.60;17.70;;;;;;;3.55;100.00;99948.97;104678;1305;25469;-70
2023/03/08 04:34:13;;;;;;;41.20;17.70;;;;;;;3.58;100.00;100010.44;104635;1305;22565;-69
2023/03/08 04:36:44;;;;;;;42.80;17.80;;;;;;;3.60;100.00;100057.31;104473;1305;25475;-70
2023/03/08 04:39:13;;;;;;;39.60;17.20;;;;;;;3.63;100.00;100081.66;104563;1305;24295;-70
2023/03/08 04:41:43;;;;;;;38.10;16.10;;;;;;;3.66;100.00;100086.63;104799;1305;24104;-71
2023/03/08 04:44:33;;;;;;;36.10;16.00;;;;;;;3.68;100.00;100077.48;104611;1305;25466;-69
2023/03/08 04:47:07;;;;;;;42.70;17.40;;;;;;;3.71;100.00;100086.38;104480;1305;26041;-71
2023/03/08 04:49:40;;;;;;;;;;;;;;;3.72;100.00;100094.00;104631;1304;25634;-69
2023/03/08 04:52:08;;;;;;;44.10;17.20;;;;;;;3.71;100.00;100107.77;104632;1305;25389;-68
2023/03/08 04:54:40;;;;;;;43.00;18.50;;;;;;;3.69;100.00;100108.62;104700;1304;25290;-69
2023/03/08 04:57:18;;;;;;;35.40;16.40;;;;;;;3.69;100.00;100103.45;104669;1304;25287;-71
2023/03/08 04:59:49;;;;;;;41.00;17.90;;;;;;;3.69;100.00;100110.58;104634;1304;22652;-69
2023/03/08 05:02:17;;;;;;;42.40;18.60;;;;;;;3.70;100.00;100113.95;104677;1304;24219;-69
2023/03/08 05:04:46;;;;;;;41.30;18.50;;;;;;;3.70;100.00;100111.95;104682;1304;22552;-67
2023/03/08 05:07:18;;;;;;;44.20;18.50;;;;;;;3.70;100.00;100110.36;104589;1304;25506;-67
2023/03/08 05:09:46;;;;;;;39.20;19.00;;;;;;;3.71;100.00;100110.45;104696;1304;26021;-67
2023/03/08 05:12:15;;;;;;;43.60;18.40;;;;;;;3.73;100.00;100110.30;104713;1304;25338;-69
2023/03/08 05:14:51;;;;;;;44.90;20.20;;;;;;;3.74;100.00;100155.09;104710;1304;22685;-70
2023/03/08 05:17:21;;;;;;;50.80;20.40;;;;;;;3.76;100.00;100172.42;104748;1304;26002;-69
2023/03/08 05:19:54;;;;;;;42.50;18.60;;;;;;;3.77;100.00;100187.52;104696;1304;25459;-68
2023/03/08 05:22:28;;;;;;;42.40;19.20;;;;;;;3.77;100.00;100186.57;104653;1304;25489;-69
2023/03/08 05:24:57;;;;;;;41.80;19.40;;;;;;;3.79;100.00;100184.48;104689;1304;22557;-69
2023/03/08 05:27:26;;;;;;;43.50;19.00;;;;;;;3.82;100.00;100192.98;104650;1304;22563;-70
2023/03/08 05:29:56;;;;;;;44.20;19.50;;;;;;;3.86;100.00;100188.77;104721;1304;25338;-69
2023/03/08 05:32:30;;;;;;;51.50;22.90;;;;;;;3.89;100.00;100184.24;104668;1304;26822;-69
2023/03/08 05:34:59;;;;;;;52.20;23.10;;;;;;;3.92;100.00;100169.57;104649;1304;23445;-70
2023/03/08 05:37:32;;;;;;;46.00;19.60;;;;;;;3.96;100.00;100174.75;104643;1304;25338;-69
2023/03/08 05:40:05;;;;;;;39.70;16.80;;;;;;;3.99;100.00;100177.67;104618;1304;26739;-69
2023/03/08 05:42:37;;;;;;;;;;;;;;;4.02;100.00;100173.95;104620;1304;22540;-69
2023/03/08 05:45:07;;;;;;;41.20;16.70;;;;;;;4.02;100.00;100163.04;104605;1304;25446;-69
2023/03/08 05:47:37;;;;;;;34.80;16.50;;;;;;;4.04;100.00;100152.17;104721;1304;25437;-67
2023/03/08 05:50:10;;;;;;;42.00;17.40;;;;;;;4.07;100.00;100142.32;104736;1304;26543;-70
2023/03/08 05:52:41;;;;;;;44.10;18.20;;;;;;;4.10;100.00;100143.98;104529;1304;26979;-69
2023/03/08 05:55:12;;;;;;;34.70;16.00;;;;;;;4.14;100.00;100142.41;104736;1304;23843;-70
2023/03/08 05:57:41;;;;;;;41.00;18.00;;;;;;;4.18;100.00;100161.48;104772;1304;26013;-69
2023/03/08 06:00:11;;;;;;;42.50;19.90;;;;;;;4.23;100.00;100174.32;104756;1304;22629;-69
2023/03/08 06:02:51;;;;;;;45.10;20.30;;;;;;;4.28;100.00;100169.13;104690;1304;23817;-69
2023/03/08 06:05:20;;;;;;;51.00;20.60;;;;;;;4.31;100.00;100154.05;104585;1304;22598;-68
2023/03/08 06:07:55;;;;;;;37.00;16.50;;;;;;;4.33;100.00;100125.30;104751;1298;25454;-70
2023/03/08 06:10:26;;;;;;;36.90;17.10;;;;;;;4.37;100.00;100120.63;104699;1296;26727;-69
2023/03/08 06:12:55;;;;;;;46.20;18.60;;;;;;;4.43;100.00;100112.69;104781;1297;22681;-73
2023/03/08 06:15:25;;;;;;;35.20;16.20;;;;;;;4.48;100.00;100104.09;104868;1298;26010;-69
2023/03/08 06:17:55;;;;;;;38.20;16.30;;;;;;;4.50;100.00;100087.23;104795;1296;25412;-70
2023/03/08 06:20:25;;;;;;;46.30;22.80;;;;;;;4.56;100.00;100076.39;104636;1296;25526;-69
2023/03/08 06:22:55;;;;;;;40.50;19.10;;;;;;;4.64;100.00;100063.20;104799;1296;26073;-69
2023/03/08 06:25:24;;;;;;;47.00;19.60;;;;;;;4.72;100.00;100058.91;104735;1298;23909;-68
2023/03/08 06:27:54;;;;;;;41.70;18.50;;;;;;;4.79;100.00;100061.77;104610;1296;25461;-69
2023/03/08 06:30:34;;;;;;;33.00;15.50;;;;;;;4.85;100.00;100061.92;104753;1296;25457;-70
2023/03/08 06:33:04;;;;;;;37.50;18.00;;;;;;;4.90;100.00;100059.02;104888;1297;24117;-70
2023/03/08 06:35:33;;;;;;;38.80;20.00;;;;;;;4.95;100.00;100050.84;104733;1296;22687;-69
2023/03/08 06:38:02;;;;;;;40.90;18.60;;;;;;;4.99;100.00;100039.46;105575;1296;24262;-76
2023/03/08 06:40:32;;;;;;;45.20;22.00;;;;;;;5.03;100.00;100034.84;105692;1283;22550;-77
2023/03/08 06:43:00;;;;;;;46.30;19.00;;;;;;;5.06;100.00;100033.67;105634;1296;25332;-74
2023/03/08 06:45:29;;;;;;;35.10;16.60;;;;;;;5.12;100.00;100031.39;105496;1296;23935;-78
2023/03/08 06:48:03;;;;;;;42.60;19.60;;;;;;;5.20;100.00;100028.86;105637;1299;22604;-79
2023/03/08 06:50:32;;;;;;;41.60;20.60;;;;;;;5.31;100.00;100033.98;105362;1298;22954;-77
2023/03/08 06:53:01;;;;;;;40.80;19.60;;;;;;;5.38;100.00;100029.28;105660;1298;22764;-77
2023/03/08 06:55:42;;;;;;;42.10;20.10;;;;;;;5.43;100.00;100010.55;105613;1296;22588;-77
2023/03/08 06:58:11;;;;;;;44.50;19.10;;;;;;;5.49;100.00;100005.68;105719;1301;22644;-76
2023/03/08 07:00:42;;;;;;;46.70;22.50;;;;;;;5.54;100.00;99986.98;105583;1305;25338;-69
2023/03/08 07:03:11;;;;;;;41.90;19.20;;;;;;;5.58;100.00;99973.64;104865;1305;23778;-72
2023/03/08 07:05:39;;;;;;;;;;;;;;;5.62;100.00;99958.82;104829;1305;22516;-70
2023/03/08 07:08:11;;;;;;;41.50;21.10;;;;;;;5.66;100.00;99941.95;104818;1305;24119;-72
2023/03/08 07:10:40;;;;;;;36.80;17.30;;;;;;;5.67;100.00;99922.84;104843;1305;25488;-69
2023/03/08 07:13:11;;;;;;;37.70;17.90;;;;;;;5.68;100.00;99903.09;104916;1296;23065;-70
2023/03/08 07:15:41;;;;;;;44.00;18.90;;;;;;;5.70;100.00;99882.88;105033;1299;23840;-76
2023/03/08 07:18:11;;;;;;;44.80;19.20;;;;;;;5.73;100.00;99859.96;105387;1300;22555;-76
2023/03/08 07:20:43;;;;;;;56.60;24.80;;;;;;;5.76;100.00;99836.38;105137;1296;24269;-70
2023/03/08 07:23:13;;;;;;;38.00;18.10;;;;;;;5.81;100.00;99818.94;104469;1296;25425;-69
2023/03/08 07:25:42;;;;;;;34.10;16.20;;;;;;;5.87;100.00;99800.48;104713;1304;24276;-70
2023/03/08 07:28:10;;;;;;;38.20;16.40;;;;;;;5.92;100.00;99784.08;104681;1296;26535;-69
2023/03/08 07:30:39;;;;;;;42.50;19.20;;;;;;;5.98;100.00;99769.55;104778;1303;25338;-69
2023/03/08 07:33:10;;;;;;;37.00;17.20;;;;;;;6.02;100.00;99762.55;104829;1303;23852;-68
2023/03/08 07:35:39;;;;;;;37.80;17.60;;;;;;;6.03;100.00;99739.88;104854;1303;25351;-70
2023/03/08 07:38:10;;;;;;;34.40;15.00;;;;;;;6.07;100.00;99725.58;104783;1303;22761;-69
2023/03/08 07:40:40;;;;;;;33.50;14.30;;;;;;;6.07;100.00;99707.48;104821;1303;25961;-68
2023/03/08 07:43:10;;;;;;;33.60;13.90;;;;;;;6.08;100.00;99698.75;104685;1303;25913;-68
2023/03/08 07:45:53;;;;;;;29.80;12.60;;;;;;;6.09;100.00;99672.73;104836;1303;25297;-69
2023/03/08 07:48:21;;;;;;;28.30;12.50;;;;;;;6.10;100.00;99665.89;105028;1303;25462;-69
2023/03/08 07:50:50;;;;;;;28.50;11.90;;;;;;;6.11;100.00;99658.26;104983;1303;23432;-70
2023/03/08 07:53:18;;;;;;;27.00;12.10;;;;;;;6.13;100.00;99648.95;104993;1303;22497;-79
2023/03/08 07:55:47;;;;;;;27.50;12.20;;;;;;;6.15;100.00;99633.54;105404;1298;23888;-70
2023/03/08 07:58:15;;;;;;;26.40;11.50;;;;;;;6.17;100.00;99621.71;104764;1304;22555;-72
2023/03/08 08:00:45;;;;;;;28.20;11.70;;;;;;;6.21;100.00;99605.73;103458;1304;1004688;-70
2023/03/08 08:03:14;;;;;;;36.30;14.60;;;;;;;6.25;100.00;99593.64;105084;1305;25499;-71
2023/03/08 08:05:43;;;;;;;29.70;13.70;;;;;;;6.30;100.00;99577.96;104853;1304;25505;-70
2023/03/08 08:08:12;;;;;;;28.20;12.80;;;;;;;6.36;100.00;99576.49;104760;1304;22548;-69
2023/03/08 08:10:44;;;;;;;33.40;14.20;;;;;;;6.39;100.00;99566.15;105037;1305;26563;-69
2023/03/08 08:13:16;;;;;;;28.00;12.20;;;;;;;6.43;100.00;99554.94;105054;1304;24742;-70
2023/03/08 08:15:46;;;;;;;28.40;11.60;;;;;;;6.48;100.00;99553.59;105227;1305;23908;-69
2023/03/08 08:18:14;;;;;;;32.00;14.00;;;;;;;6.51;100.00;99547.17;105148;1305;22607;-70
2023/03/08 08:20:43;;;;;;;26.80;12.00;;;;;;;6.53;100.00;99535.39;105324;1299;22551;-73
2023/03/08 08:23:12;;;;;;;31.60;13.70;;;;;;;6.55;100.00;99524.20;105127;1298;23788;-69
2023/03/08 08:25:45;;;;;;;33.20;13.70;;;;;;;6.61;100.00;99520.08;105141;1302;25485;-70
2023/03/08 08:28:15;;;;;;;26.50;13.30;;;;;;;6.65;100.00;99509.41;105034;1298;25530;-73
2023/03/08 08:30:58;;;;;;;28.70;14.50;;;;;;;6.68;100.00;99499.23;104690;1305;22716;-70
2023/03/08 08:33:28;;;;;;;30.70;14.20;;;;;;;6.70;100.00;99488.63;104852;1298;22558;-71
2023/03/08 08:35:57;;;;;;;31.00;15.30;;;;;;;6.76;100.00;99480.30;104902;1304;25462;-77
2023/03/08 08:38:25;;;;;;;35.20;15.40;;;;;;;6.82;100.00;99478.75;104947;1299;25351;-71
2023/03/08 08:40:54;;;;;;;31.50;13.60;;;;;;;6.88;100.00;99471.45;104677;1298;25460;-69
2023/03/08 08:43:28;;;;;;;26.70;11.90;;;;;;;6.94;100.00;99463.79;104776;1305;25342;-69
2023/03/08 08:45:57;;;;;;;28.20;13.20;;;;;;;7.01;100.00;99451.15;104942;1305;26750;-70
2023/03/08 08:48:26;;;;;;;32.00;13.10;;;;;;;7.07;100.00;99434.30;104877;1299;22628;-68
2023/03/08 08:50:54;;;;;;;33.50;14.20;;;;;;;7.14;100.00;99429.02;105241;1299;22601;-69
2023/03/08 08:53:23;;;;;;;29.80;12.30;;;;;;;7.25;100.00;99416.02;104823;1299;22570;-69
2023/03/08 08:55:53;;;;;;;32.60;13.10;;;;;;;7.36;100.00;99399.47;104774;1301;22670;-69
2023/03/08 08:58:22;;;;;;;28.80;12.70;;;;;;;7.50;100.00;99385.92;104725;1301;25459;-71
2023/03/08 09:00:50;;;;;;;28.00;13.80;;;;;;;7.66;100.00;99379.61;105261;1298;24435;-70
2023/03/08 09:03:19;;;;;;;31.20;18.30;;;;;;;7.76;100.00;99366.19;104787;1296;25341;-71
2023/03/08 09:05:48;;;;;;;32.00;15.00;;;;;;;7.87;100.00;99356.15;104762;1298;26556;-71
2023/03/08 09:08:18;;;;;;;27.20;12.90;;;;;;;7.99;100.00;99344.77;104756;1296;25421;-69
2023/03/08 09:10:46;;;;;;;29.30;16.50;;;;;;;8.09;100.00;99329.70;104892;1299;23786;-70
2023/03/08 09:13:17;;;;;;;27.50;12.70;;;;;;;8.17;100.00;99311.02;104775;1299;26557;-70
2023/03/08 09:15:46;;;;;;;25.00;11.90;;;;;;;8.25;100.00;99303.15;105163;1296;25409;-69
2023/03/08 09:18:16;;;;;;;24.40;12.60;;;;;;;8.31;100.00;99287.66;104791;1303;26730;-68
2023/03/08 09:20:45;;;;;;;27.10;11.60;;;;;;;8.36;100.00;99286.20;103843;1296;1003166;-71
2023/03/08 09:23:14;;;;;;;20.30;11.40;;;;;;;8.46;100.00;99279.05;104882;1298;25533;-67
2023/03/08 09:25:42;;;;;;;25.20;10.30;;;;;;;8.55;100.00;99267.24;104713;1299;22551;-67
2023/03/08 09:28:13;;;;;;;23.80;10.80;;;;;;;8.61;100.00;99252.48;104832;1300;23251;-67
2023/03/08 09:30:41;;;;;;;21.80;9.80;;;;;;;8.65;100.00;99246.88;105038;1304;24234;-72
2023/03/08 09:33:11;;;;;;;19.90;10.10;;;;;;;8.69;100.00;99232.13;104801;1298;25471;-69
2023/03/08 09:35:39;;;;;;;19.40;8.40;;;;;;;8.77;100.00;99222.85;104809;1304;22549;-70
2023/03/08 09:38:08;;;;;;;20.60;9.00;;;;;;;8.85;100.00;99214.13;104761;1304;24635;-67
2023/03/08 09:40:47;;;;;;;21.20;10.50;;;;;;;8.95;100.00;99200.18;104779;1304;25484;-68
2023/03/08 09:43:22;;;;;;;19.60;10.40;;;;;;;9.06;100.00;99197.48;104841;1304;22555;-69
2023/03/08 09:45:52;;;;;;;23.20;11.40;;;;;;;9.16;100.00;99195.10;104707;1296;23385;-70
2023/03/08 09:48:26;;;;;;;21.80;11.00;;;;;;;9.26;100.00;99200.30;104758;1298;26294;-71
2023/03/08 09:51:02;;;;;;;19.90;9.50;;;;;;;9.34;100.00;99209.84;104851;1301;23244;-74
2023/03/08 09:53:33;;;;;;;22.40;10.10;;;;;;;9.39;100.00;99219.09;104801;1304;22615;-72
2023/03/08 09:56:31;;;;;;;16.90;9.00;;;;;;;9.41;100.00;99216.39;104745;1304;24072;-71
2023/03/08 09:59:00;;;;;;;17.50;8.80;;;;;;;9.47;100.00;99218.54;104610;1305;26666;-68
2023/03/08 10:02:05;;;;;;;17.70;8.90;;;;;;;9.54;100.00;99243.23;105539;1298;22693;-78
2023/03/08 10:04:51;;;;;;;17.70;8.10;;;;;;;9.65;100.00;99236.31;105069;1296;24378;-76
2023/03/08 10:07:57;;;;;;;13.80;7.40;;;;;;;9.82;100.00;99249.26;105084;1283;24336;-75
2023/03/08 10:10:34;;;;;;;15.80;7.80;;;;;;;10.09;100.00;99265.22;105088;1302;22580;-76
2023/03/08 10:13:27;;;;;;;18.10;9.00;;;;;;;10.36;100.00;99288.41;104626;1296;22553;-70
2023/03/08 10:16:23;;;;;;;16.50;8.80;;;;;;;10.58;100.00;99286.70;104871;1296;26047;-75
2023/03/08 10:19:12;;;;;;;13.60;7.50;;;;;;;10.63;100.00;99311.23;105094;1296;23895;-76
2023/03/08 10:21:42;;;;;;;16.70;8.10;;;;;;;10.76;100.00;99326.85;105241;1304;23311;-76
2023/03/08 10:24:25;;;;;;;20.30;7.50;;;;;;;10.97;100.00;99355.23;105526;1298;22572;-76
2023/03/08 10:26:54;;;;;;;;;;;;;;;11.21;100.00;99374.77;104789;1296;22560;-70
2023/03/08 10:29:24;;;;;;;13.10;6.60;;;;;;;11.37;100.00;99391.02;104820;1299;25342;-70
2023/03/08 10:31:52;;;;;;;14.30;7.10;;;;;;;11.45;100.00;99403.55;104750;1298;25392;-70
2023/03/08 10:34:30;;;;;;;17.60;7.10;;;;;;;11.57;100.00;99426.91;104654;1296;22559;-67
2023/03/08 10:37:01;;;;;;;15.40;6.60;;;;;;;11.72;100.00;99440.30;104746;1296;25461;-70
2023/03/08 10:39:31;;;;;;;13.70;6.90;;;;;;;11.78;100.00;99455.91;104559;1296;25341;-72
2023/03/08 10:42:01;;;;;;;13.70;6.40;;;;;;;11.86;100.00;99475.91;104591;1298;25483;-69
2023/03/08 10:44:41;;;;;;;15.40;7.40;;;;;;;11.92;100.00;99490.00;104771;1299;25407;-68
2023/03/08 10:47:31;;;;;;;13.50;6.40;;;;;;;11.96;100.00;99506.09;104733;1301;24515;-71
2023/03/08 10:50:08;;;;;;;14.80;6.40;;;;;;;12.04;100.00;99512.54;104722;1296;25442;-70
2023/03/08 10:52:37;;;;;;;10.90;6.00;;;;;;;12.11;100.00;99528.05;104591;1296;22797;-68
2023/03/08 10:55:09;;;;;;;22.90;8.60;;;;;;;12.18;100.00;99528.98;104781;1303;22576;-69
2023/03/08 10:57:39;;;;;;;21.50;8.70;;;;;;;12.35;100.00;99521.88;104805;1296;24737;-69
2023/03/08 11:00:25;;;;;;;18.70;8.50;;;;;;;12.48;100.00;99526.58;104768;1304;25499;-77
2023/03/08 11:03:13;;;;;;;17.10;8.10;;;;;;;12.59;100.00;99517.73;104765;1306;25462;-77
2023/03/08 11:06:09;;;;;;;16.40;7.30;;;;;;;12.73;100.00;99518.63;104723;1306;23858;-68
2023/03/08 11:08:54;;;;;;;19.70;7.80;;;;;;;12.73;100.00;99497.02;104594;1306;25463;-72
2023/03/08 11:11:22;;;;;;;19.90;9.20;;;;;;;12.70;100.00;99494.90;104871;1298;25462;-70
2023/03/08 11:13:52;;;;;;;20.40;7.90;;;;;;;12.72;100.00;99471.09;104843;1299;27208;-68
2023/03/08 11:16:30;;;;;;;16.90;8.30;;;;;;;12.87;100.00;99449.51;104828;1299;22643;-71
2023/03/08 11:19:02;;;;;;;15.10;6.10;;;;;;;13.08;100.00;99421.56;104900;1302;25461;-71
2023/03/08 11:21:42;;;;;;;16.90;6.40;;;;;;;13.14;100.00;99406.09;104720;1298;22597;-77
2023/03/08 11:24:22;;;;;;;14.40;5.70;;;;;;;13.08;100.00;99382.35;105084;1298;23940;-76
2023/03/08 11:26:56;;;;;;;21.80;8.30;;;;;;;13.06;100.00;99371.44;105076;1299;25524;-76
2023/03/08 11:29:34;;;;;;;19.70;7.50;;;;;;;13.04;100.00;99360.41;105105;1302;22514;-68
2023/03/08 11:32:22;;;;;;;18.40;7.80;;;;;;;13.10;100.00;99354.88;104860;1299;26602;-71